Flight Track Log - Related Links

Times and Time Zones

All times are in EDT time to prevent confusion due to time zone crossing. See the N365SC flight status page for this flight to view local times or setup timezone preferences in your user account.

Time Position Orientation Groundspeed Altitude Reporting Facility
EDT Latitude Longitude Course Direction KTS MPH feet Rate Location/Type
Tue 02:56:05 PM 47.5083 -122.2831 146° Southeast 216 249 900  Level Seattle Center
Tue 02:56:47 PM 47.4636 -122.2389 146° Southeast 264 304 2,100 1,398 Climbing Seattle Center
Tue 02:57:48 PM 47.4069 -122.1819 146° Southeast 244 281 3,300 1,135 Climbing Seattle Center
Tue 02:58:01 PM 47.3997 -122.1728 139° Southeast 243 280 3,500 1,600 Climbing Seattle Center
Tue 02:59:03 PM 47.3275 -122.1417 164° South 261 300 5,300 2,390 Climbing Seattle Center
Tue 03:00:04 PM 47.2494 -122.1242 171° South 281 323 8,400 3,295 Climbing Seattle Center
Tue 03:01:05 PM 47.1667 -122.1056 171° South 299 344 12,000 3,197 Climbing Seattle Center
Tue 03:02:06 PM 47.0867 -122.0733 165° South 308 354 14,900 1,918 Climbing Seattle Center
Tue 03:03:07 PM 46.9939 -121.9950 150° Southeast 365 420 15,900 689 Climbing Seattle Center
Tue 03:04:08 PM 46.9381 -121.8561 120° Southeast 397 457 16,300 443 Climbing Seattle Center
Tue 03:05:09 PM 46.9128 -121.7181 105° East 353 406 16,800 344 Climbing Seattle Center
Tue 03:06:10 PM 46.8486 -121.6428 141° Southeast 311 358 17,000 98 Climbing Seattle Center
Tue 03:07:11 PM 46.7703 -121.7067 209° Southwest 313 360 17,000 344 Level Seattle Center
Tue 03:08:12 PM 46.7067 -121.7739 216° Southwest 350 403 17,700 780 Climbing Seattle Center
Tue 03:09:14 PM 46.6211 -121.6981 149° Southeast 382 440 18,600 1,317 Climbing Seattle Center
Tue 03:10:15 PM 46.6206 -121.5178 90° East 412 474 20,400 2,016 Climbing Seattle Center
Tue 03:11:16 PM 46.6264 -121.3531 87° East 408 470 22,700 2,213 Climbing Seattle Center
Tue 03:12:17 PM 46.5772 -121.2036 116° Southeast 416 479 24,900 2,066 Climbing Seattle Center
Tue 03:13:18 PM 46.5192 -121.0528 119° Southeast 426 490 26,900 1,967 Climbing Seattle Center
Tue 03:14:19 PM 46.4583 -120.9022 120° Southeast 431 496 28,900 1,770 Climbing Seattle Center
Tue 03:15:20 PM 46.3975 -120.7525 120° Southeast 433 498 30,500 1,426 Climbing Seattle Center
Tue 03:16:21 PM 46.3367 -120.5975 120° Southeast 440 506 31,800 1,180 Climbing Seattle Center
Tue 03:17:22 PM 46.2736 -120.4422 120° Southeast 447 514 32,900 1,230 Climbing Seattle Center
Tue 03:18:23 PM 46.1972 -120.2517 120° Southeast 455 524 34,300 1,171 Climbing Seattle Center
Tue 03:19:25 PM 46.1331 -120.0925 120° Southeast 458 527 35,300 1,122 Climbing Seattle Center
Tue 03:20:26 PM 46.0678 -119.9344 121° Southeast 459 528 36,600 1,230 Climbing Seattle Center
Tue 03:21:27 PM 46.0044 -119.7811 121° Southeast 450 518 37,800 984 Climbing Seattle Center
Tue 03:22:28 PM 45.9422 -119.6306 121° Southeast 441 507 38,600 590 Climbing Seattle Center
Tue 03:23:29 PM 45.8778 -119.4783 121° Southeast 444 511 39,000 195 Climbing Seattle Center
Tue 03:24:31 PM 45.8114 -119.3172 121° Southeast 463 533 39,000  Level Seattle Center
Tue 03:25:32 PM 45.7431 -119.1578 122° Southeast 468 539 39,000  Level Seattle Center
Tue 03:26:33 PM 45.6750 -118.9961 121° Southeast 471 542 39,000  Level Seattle Center
Tue 03:27:34 PM 45.6061 -118.8344 121° Southeast 473 544 39,000  Level Seattle Center
Tue 03:28:35 PM 45.5372 -118.6739 121° Southeast 473 544 39,000  Level Seattle Center
Tue 03:29:36 PM 45.4678 -118.5139 122° Southeast 475 547 39,000  Level Seattle Center
Tue 03:31:00 PM 45.3637 -118.3293 129° Southeast  Level FlightAware Approximate
Tue 03:38:00 PM 44.9027 -117.3463 120° Southeast  Level FlightAware Approximate
Tue 03:39:00 PM 44.8422 -117.2022 121° Southeast  Level FlightAware Approximate
Tue 03:40:00 PM 44.7814 -117.0584 121° Southeast  Level FlightAware Approximate
Tue 03:40:52 PM 44.6403 -116.7522 122° Southeast 474 545 39,000  Level Salt Lake Center
Tue 03:41:00 PM 44.7205 -116.9149 121° Southeast  Level FlightAware Approximate
Tue 03:41:54 PM 44.5644 -116.6019 125° Southeast 475 547 39,000  Level Salt Lake Center
Tue 03:42:00 PM 44.6494 -116.7818 119° Southeast  Level FlightAware Approximate
Tue 03:43:00 PM 44.5913 -116.6363 119° Southeast  Level FlightAware Approximate
Tue 03:43:00 PM 44.4822 -116.4404 125° Southeast  Level FlightAware Approximate
Tue 03:44:00 PM 44.5313 -116.4926 123° Southeast  Level FlightAware Approximate
Tue 03:45:00 PM 44.4668 -116.3529 123° Southeast  Level FlightAware Approximate
Tue 03:46:00 PM 44.4028 -116.2128 122° Southeast  Level FlightAware Approximate
Tue 03:47:02 PM 44.1678 -115.8219 123° Southeast 487 560 35,700  Level Salt Lake Center
Tue 03:48:04 PM 44.0894 -115.6706 126° Southeast 485 558 33,200 -2,419 Descending Salt Lake Center
Tue 03:49:06 PM 44.0125 -115.5236 126° Southeast 474 545 30,700 -2,710 Descending Salt Lake Center
Tue 03:50:00 PM 43.9852 -115.5012 126° Southeast  Level FlightAware Approximate
Tue 03:50:08 PM 43.9222 -115.3517 126° Southeast 463 533 27,600  Level Salt Lake Center
Tue 03:51:00 PM 43.9171 -115.3647 123° Southeast  Level FlightAware Approximate
Tue 03:51:09 PM 43.8467 -115.2092 126° Southeast 460 529 25,000  Level Salt Lake Center
Tue 03:52:00 PM 43.8526 -115.2249 123° Southeast  Level FlightAware Approximate
Tue 03:52:11 PM 43.7719 -115.0661 126° Southeast 459 528 22,500  Level Salt Lake Center
Tue 03:53:13 PM 43.6969 -114.9269 127° Southeast 444 511 20,000 -2,341 Descending Salt Lake Center
Tue 03:54:14 PM 43.6250 -114.7906 126° Southeast 426 490 17,700 -1,951 Descending Salt Lake Center
Tue 03:55:16 PM 43.5606 -114.6703 126° Southeast 383 441 16,000 -1,645 Descending Salt Lake Center

Login

Don't have an account? Register now (free) for customized features, flight alerts, and more!